createdAt,value
2023-05-14T00:01:12.501Z,20.38
2023-05-14T00:06:15.167Z,18.35
2023-05-14T00:11:16.825Z,17.90
2023-05-14T00:16:18.535Z,17.58
2023-05-14T00:21:20.333Z,16.33
2023-05-14T00:26:22.274Z,16.65
2023-05-14T00:31:24.460Z,16.65
2023-05-14T00:36:26.095Z,16.70
2023-05-14T00:41:27.805Z,13.30
2023-05-14T00:46:29.662Z,17.92
2023-05-14T00:51:31.543Z,17.08
2023-05-14T00:56:34.250Z,15.57
2023-05-14T01:01:35.905Z,14.07
2023-05-14T01:07:04.507Z,17.90
2023-05-14T01:12:18.311Z,14.70
2023-05-14T01:17:22.915Z,18.08
2023-05-14T01:22:24.604Z,14.38
2023-05-14T01:27:34.542Z,12.52
2023-05-14T01:32:36.951Z,13.10
2023-05-14T01:37:39.684Z,12.90
2023-05-14T01:42:42.880Z,17.42
2023-05-14T01:47:44.634Z,17.55
2023-05-14T01:52:46.803Z,16.52
2023-05-14T01:57:48.443Z,16.92
2023-05-14T02:02:50.456Z,16.88
2023-05-14T02:07:52.094Z,15.80
2023-05-14T02:12:53.734Z,16.15
2023-05-14T02:17:55.574Z,14.82
2023-05-14T02:22:57.296Z,15.68
2023-05-14T02:27:59.191Z,16.35
2023-05-14T02:33:02.138Z,15.32
2023-05-14T02:38:04.063Z,15.73
2023-05-14T02:43:06.220Z,17.23
2023-05-14T02:48:08.035Z,14.60
2023-05-14T02:53:09.860Z,13.13
2023-05-14T02:58:11.626Z,17.42
2023-05-14T03:03:13.467Z,14.93
2023-05-14T03:08:15.550Z,15.20
2023-05-14T03:13:19.964Z,16.80
2023-05-14T03:18:21.765Z,16.25
2023-05-14T03:23:23.410Z,14.43
2023-05-14T03:28:27.116Z,15.98
2023-05-14T03:33:29.166Z,16.88
2023-05-14T03:38:30.861Z,15.50
2023-05-14T03:43:32.496Z,14.82
2023-05-14T03:48:34.315Z,16.27
2023-05-14T03:53:38.948Z,13.13
2023-05-14T03:58:42.388Z,14.85
2023-05-14T04:03:44.218Z,15.93
2023-05-14T04:08:46.602Z,14.40
2023-05-14T04:13:48.234Z,15.82
2023-05-14T04:18:49.997Z,17.70
2023-05-14T04:23:51.695Z,14.32
2023-05-14T04:28:53.334Z,16.27
2023-05-14T04:33:54.961Z,13.05
2023-05-14T04:38:56.609Z,15.52
2023-05-14T04:44:00.535Z,15.20
2023-05-14T04:49:02.551Z,14.13
2023-05-14T04:54:04.417Z,12.35
2023-05-14T04:59:06.425Z,11.55
2023-05-14T05:04:08.205Z,10.43
2023-05-14T05:09:09.962Z,13.70
2023-05-14T05:14:11.609Z,11.57
2023-05-14T05:19:13.326Z,10.85
2023-05-14T05:24:15.138Z,11.10
2023-05-14T05:29:16.763Z,6.55
2023-05-14T05:34:18.499Z,8.55
2023-05-14T05:39:20.096Z,9.32
2023-05-14T05:44:21.764Z,7.47
2023-05-14T05:49:23.606Z,8.10
2023-05-14T05:54:25.617Z,7.00
2023-05-14T05:59:27.252Z,7.95
2023-05-14T06:04:28.898Z,8.70
2023-05-14T06:09:30.549Z,7.60
2023-05-14T06:14:32.197Z,6.72
2023-05-14T06:19:34.152Z,8.73
2023-05-14T06:24:35.779Z,8.60
2023-05-14T06:29:39.516Z,6.55
2023-05-14T06:34:44.279Z,7.90
2023-05-14T06:39:50.139Z,10.75
2023-05-14T06:44:52.060Z,7.10
2023-05-14T06:49:53.951Z,7.40
2023-05-14T06:54:55.622Z,7.75
2023-05-14T06:59:57.521Z,10.13
2023-05-14T07:04:59.128Z,6.45
2023-05-14T07:10:01.512Z,8.50
2023-05-14T07:15:03.334Z,7.32
2023-05-14T07:20:05.913Z,6.93
2023-05-14T07:25:07.962Z,7.35
2023-05-14T07:30:09.903Z,5.53
2023-05-14T07:35:11.884Z,6.97
2023-05-14T07:40:13.579Z,5.90
2023-05-14T07:45:15.231Z,6.13
2023-05-14T07:50:17.434Z,6.95
2023-05-14T07:55:19.133Z,11.50
2023-05-14T08:00:20.823Z,7.53
2023-05-14T08:05:22.541Z,5.55
2023-05-14T08:10:24.412Z,5.55
2023-05-14T08:15:27.944Z,5.70
2023-05-14T08:20:31.145Z,6.22
2023-05-14T08:25:33.527Z,7.97
2023-05-14T08:30:35.403Z,7.10
2023-05-14T08:35:37.123Z,6.72
2023-05-14T08:40:38.834Z,7.32
2023-05-14T08:45:40.514Z,6.13
2023-05-14T08:50:43.648Z,9.95
2023-05-14T08:55:46.069Z,9.85
2023-05-14T09:00:47.819Z,6.38
2023-05-14T09:05:51.599Z,9.73
2023-05-14T09:10:53.286Z,8.20
2023-05-14T09:15:55.341Z,6.43
2023-05-14T09:20:57.905Z,7.47
2023-05-14T09:26:00.844Z,8.93
2023-05-14T09:31:02.704Z,6.53
2023-05-14T09:36:04.485Z,5.28
2023-05-14T09:41:06.131Z,5.82
2023-05-14T09:46:07.854Z,18.33
2023-05-14T09:51:13.614Z,6.45
2023-05-14T09:56:15.416Z,5.05
2023-05-14T10:01:19.579Z,4.60
2023-05-14T10:06:26.682Z,5.75
2023-05-14T10:11:31.606Z,5.57
2023-05-14T10:16:39.038Z,5.82
2023-05-14T10:21:41.834Z,4.85
2023-05-14T10:26:44.432Z,5.43
2023-05-14T10:31:50.686Z,8.05
2023-05-14T10:36:52.328Z,5.88
2023-05-14T10:41:53.942Z,4.15
2023-05-14T10:46:55.656Z,5.80
2023-05-14T10:51:57.646Z,5.63
2023-05-14T10:56:59.789Z,6.25
2023-05-14T11:02:05.433Z,6.80
2023-05-14T11:07:07.440Z,5.63
2023-05-14T11:12:09.330Z,4.95
2023-05-14T11:17:11.772Z,6.93
2023-05-14T11:22:14.530Z,4.55
2023-05-14T11:27:17.496Z,5.15
2023-05-14T11:32:19.720Z,4.60
2023-05-14T11:37:21.438Z,5.43
2023-05-14T11:42:23.795Z,6.00
2023-05-14T11:47:25.505Z,5.20
2023-05-14T11:52:27.169Z,4.78
2023-05-14T11:57:31.319Z,4.28
2023-05-14T12:02:32.983Z,4.30
2023-05-14T12:07:34.688Z,4.88
2023-05-14T12:12:39.878Z,4.20
2023-05-14T12:17:41.650Z,3.95
2023-05-14T12:22:43.318Z,3.72
2023-05-14T12:27:45.387Z,5.13
2023-05-14T12:32:47.171Z,4.22
2023-05-14T12:37:48.809Z,4.00
2023-05-14T12:42:50.532Z,4.25
2023-05-14T12:47:52.252Z,4.18
2023-05-14T12:52:54.137Z,4.82
2023-05-14T12:57:55.895Z,3.63
2023-05-14T13:02:57.626Z,6.60
2023-05-14T13:08:00.698Z,3.00
2023-05-14T13:13:02.603Z,3.33
2023-05-14T13:18:04.860Z,5.03
2023-05-14T13:23:06.585Z,4.72
2023-05-14T13:28:08.781Z,4.68
2023-05-14T13:33:10.566Z,3.30
2023-05-14T13:38:12.342Z,3.85
2023-05-14T13:43:17.983Z,3.72
2023-05-14T13:48:19.670Z,5.72
2023-05-14T13:53:23.162Z,5.47
2023-05-14T13:58:25.591Z,4.03
2023-05-14T14:03:27.383Z,4.75
2023-05-14T14:08:29.145Z,6.47
2023-05-14T14:13:30.766Z,4.85
2023-05-14T14:18:32.696Z,5.18
2023-05-14T14:23:34.500Z,7.80
2023-05-14T14:28:36.309Z,5.22
2023-05-14T14:33:37.921Z,6.40
2023-05-14T14:38:39.630Z,4.20
2023-05-14T14:43:41.400Z,5.30
2023-05-14T14:48:43.997Z,7.68
2023-05-14T14:53:45.710Z,4.18
2023-05-14T14:58:47.379Z,4.10
2023-05-14T15:03:49.298Z,4.55
2023-05-14T15:08:50.961Z,3.58
2023-05-14T15:13:52.611Z,7.07
2023-05-14T15:18:54.437Z,5.47
2023-05-14T15:23:57.669Z,3.97
2023-05-14T15:28:59.803Z,3.67
2023-05-14T15:34:01.679Z,4.18
2023-05-14T15:39:03.778Z,5.07
2023-05-14T15:44:05.698Z,4.90
2023-05-14T15:49:07.362Z,5.65
2023-05-14T15:54:09.458Z,4.25
2023-05-14T15:59:11.157Z,3.97
2023-05-14T16:04:12.886Z,3.92
2023-05-14T16:09:14.837Z,3.67
2023-05-14T16:14:16.569Z,4.00
2023-05-14T16:19:18.400Z,3.88
2023-05-14T16:24:20.392Z,5.03
2023-05-14T16:29:22.363Z,4.72
2023-05-14T16:34:23.971Z,3.55
2023-05-14T16:39:25.694Z,3.13
2023-05-14T16:44:27.406Z,3.15
2023-05-14T16:49:29.024Z,4.22
2023-05-14T16:54:31.042Z,4.00
2023-05-14T16:59:32.723Z,3.20
2023-05-14T17:04:38.793Z,4.18
2023-05-14T17:09:40.819Z,4.05
2023-05-14T17:14:42.492Z,5.53
2023-05-14T17:19:45.635Z,4.53
2023-05-14T17:24:47.289Z,5.07
2023-05-14T17:29:51.117Z,5.15
2023-05-14T17:34:52.952Z,3.90
2023-05-14T17:39:54.620Z,4.53
2023-05-14T17:44:56.276Z,3.35
2023-05-14T17:49:58.032Z,2.95
2023-05-14T17:55:00.251Z,10.50
2023-05-14T18:00:02.159Z,5.07
2023-05-14T18:05:12.480Z,10.32
2023-05-14T18:10:14.178Z,14.63
2023-05-14T18:15:15.858Z,5.05
2023-05-14T18:20:17.503Z,6.57
2023-05-14T18:25:19.253Z,7.85
2023-05-14T18:30:20.956Z,7.18
2023-05-14T18:35:22.700Z,6.10
2023-05-14T18:40:24.405Z,7.82
2023-05-14T18:45:26.286Z,7.13
2023-05-14T18:50:28.063Z,6.40
2023-05-14T18:55:29.907Z,7.10
2023-05-14T19:00:31.580Z,7.47
2023-05-14T19:05:33.287Z,5.60
2023-05-14T19:10:34.929Z,6.88
2023-05-14T19:15:37.088Z,6.68
2023-05-14T19:20:42.328Z,6.35
2023-05-14T19:25:44.945Z,5.70
2023-05-14T19:30:47.709Z,4.72
2023-05-14T19:35:49.414Z,4.63
2023-05-14T19:40:53.108Z,5.20
2023-05-14T19:45:54.865Z,3.90
2023-05-14T19:50:56.708Z,5.25
2023-05-14T19:55:59.296Z,5.00
2023-05-14T20:01:01.037Z,5.55
2023-05-14T20:06:02.756Z,4.47
2023-05-14T20:11:04.429Z,4.88
2023-05-14T20:16:06.693Z,4.72
2023-05-14T20:21:08.381Z,4.22
2023-05-14T20:26:10.068Z,6.47
2023-05-14T20:31:11.778Z,9.00
2023-05-14T20:36:13.485Z,4.90
2023-05-14T20:41:15.192Z,3.35
2023-05-14T20:46:16.871Z,3.60
2023-05-14T20:51:18.585Z,4.95
2023-05-14T20:56:20.688Z,3.90
2023-05-14T21:01:22.374Z,4.55
2023-05-14T21:06:24.516Z,4.72
2023-05-14T21:11:26.201Z,3.92
2023-05-14T21:16:27.829Z,3.70
2023-05-14T21:21:29.444Z,4.25
2023-05-14T21:26:32.170Z,7.18
2023-05-14T21:31:33.814Z,5.55
2023-05-14T21:36:35.733Z,4.32
2023-05-14T21:41:37.413Z,4.72
2023-05-14T21:46:39.097Z,4.28
2023-05-14T21:51:40.787Z,4.40
2023-05-14T21:56:42.576Z,4.80
2023-05-14T22:06:49.480Z,4.97
2023-05-14T22:11:51.216Z,4.82
2023-05-14T22:16:53.025Z,4.75
2023-05-14T22:21:54.725Z,4.93
2023-05-14T22:26:56.327Z,5.20
2023-05-14T22:31:58.094Z,4.82
2023-05-14T22:37:00.352Z,3.67
2023-05-14T22:42:02.029Z,4.13
2023-05-14T22:47:05.236Z,4.45
2023-05-14T22:52:06.861Z,4.45
2023-05-14T22:57:08.471Z,4.18
2023-05-14T23:02:10.168Z,4.15
2023-05-14T23:07:11.826Z,4.45
2023-05-14T23:12:13.533Z,4.10
2023-05-14T23:17:17.104Z,4.35
2023-05-14T23:22:18.754Z,4.75
2023-05-14T23:27:20.968Z,6.63
2023-05-14T23:32:22.959Z,39.50
2023-05-14T23:37:24.626Z,5.80
2023-05-14T23:42:26.283Z,6.63
2023-05-14T23:47:27.950Z,4.78
2023-05-14T23:52:29.581Z,6.53
2023-05-14T23:57:31.301Z,4.35
